createdAt,value
2024-01-24T00:00:50.844Z,96399.00
2024-01-24T00:01:50.862Z,96399.00
2024-01-24T00:02:51.206Z,96405.00
2024-01-24T00:03:51.173Z,96408.00
2024-01-24T00:04:51.256Z,96406.00
2024-01-24T00:05:51.302Z,96405.00
2024-01-24T00:06:51.419Z,96401.00
2024-01-24T00:07:51.489Z,96400.00
2024-01-24T00:08:51.609Z,96396.00
2024-01-24T00:09:51.785Z,96395.00
2024-01-24T00:10:51.876Z,96394.00
2024-01-24T00:11:51.944Z,96395.00
2024-01-24T00:12:52.149Z,96393.00
2024-01-24T00:13:52.164Z,96395.00
2024-01-24T00:14:52.234Z,96396.00
2024-01-24T00:15:52.399Z,96393.00
2024-01-24T00:16:52.443Z,96394.00
2024-01-24T00:17:52.639Z,96396.00
2024-01-24T00:18:52.742Z,96397.00
2024-01-24T00:19:52.742Z,96398.00
2024-01-24T00:20:52.857Z,96394.00
2024-01-24T00:21:52.972Z,96383.00
2024-01-24T00:22:53.013Z,96379.00
2024-01-24T00:23:53.128Z,96378.00
2024-01-24T00:24:53.227Z,96383.00
2024-01-24T00:25:53.302Z,96385.00
2024-01-24T00:26:53.349Z,96384.00
2024-01-24T00:27:53.465Z,96383.00
2024-01-24T00:28:53.551Z,96376.00
2024-01-24T00:29:53.568Z,96371.00
2024-01-24T00:30:53.662Z,96364.00
2024-01-24T00:31:53.795Z,96360.00
2024-01-24T00:32:53.839Z,96359.00
2024-01-24T00:33:54.068Z,96362.00
2024-01-24T00:34:53.980Z,96361.00
2024-01-24T00:35:54.026Z,96361.00
2024-01-24T00:36:54.065Z,96365.00
2024-01-24T00:37:54.137Z,96363.00
2024-01-24T00:38:54.183Z,96363.00
2024-01-24T00:39:54.267Z,96361.00
2024-01-24T00:40:54.310Z,96360.00
2024-01-24T00:41:54.395Z,96357.00
2024-01-24T00:42:54.438Z,96357.00
2024-01-24T00:43:54.501Z,96361.00
2024-01-24T00:44:54.517Z,96366.00
2024-01-24T00:45:54.582Z,96366.00
2024-01-24T00:46:54.660Z,96364.00
2024-01-24T00:47:54.722Z,96365.00
2024-01-24T00:48:54.801Z,96370.00
2024-01-24T00:49:54.774Z,96368.00
2024-01-24T00:50:54.851Z,96363.00
2024-01-24T00:51:54.957Z,96357.00
2024-01-24T00:52:55.007Z,96360.00
2024-01-24T00:53:55.110Z,96363.00
2024-01-24T00:54:55.152Z,96360.00
2024-01-24T00:55:55.310Z,96359.00
2024-01-24T00:56:55.393Z,96358.00
2024-01-24T00:57:55.518Z,96357.00
2024-01-24T00:58:55.620Z,96361.00
2024-01-24T00:59:55.798Z,96358.00
2024-01-24T01:00:55.849Z,96359.00
2024-01-24T01:01:55.902Z,96360.00
2024-01-24T01:02:56.055Z,96361.00
2024-01-24T01:03:56.360Z,96365.00
2024-01-24T01:04:56.208Z,96367.00
2024-01-24T01:05:56.315Z,96366.00
2024-01-24T01:06:56.426Z,96363.00
2024-01-24T01:07:56.508Z,96363.00
2024-01-24T01:08:56.635Z,96362.00
2024-01-24T01:09:56.717Z,96361.00
2024-01-24T01:10:56.848Z,96364.00
2024-01-24T01:11:56.968Z,96366.00
2024-01-24T01:12:57.217Z,96362.00
2024-01-24T01:13:57.180Z,96357.00
2024-01-24T01:14:57.286Z,96355.00
2024-01-24T01:15:57.428Z,96354.00
2024-01-24T01:16:57.519Z,96354.00
2024-01-24T01:17:57.651Z,96358.00
2024-01-24T01:18:57.766Z,96358.00
2024-01-24T01:19:57.832Z,96360.00
2024-01-24T01:20:57.957Z,96361.00
2024-01-24T01:21:58.215Z,96361.00
2024-01-24T01:22:58.171Z,96357.00
2024-01-24T01:23:58.301Z,96358.00
2024-01-24T01:25:00.584Z,96361.00
2024-01-24T01:25:58.533Z,96365.00
2024-01-24T01:26:58.670Z,96363.00
2024-01-24T01:27:58.792Z,96357.00
2024-01-24T01:28:58.868Z,96356.00
2024-01-24T01:29:59.006Z,96352.00
2024-01-24T01:30:59.105Z,96345.00
2024-01-24T01:31:59.192Z,96336.00
2024-01-24T01:32:59.354Z,96331.00
2024-01-24T01:33:59.523Z,96327.00
2024-01-24T01:34:59.517Z,96326.00
2024-01-24T01:36:09.272Z,96321.00
2024-01-24T01:37:00.764Z,96315.00
2024-01-24T01:37:59.683Z,96315.00
2024-01-24T01:38:59.737Z,96318.00
2024-01-24T01:39:59.789Z,96319.00
2024-01-24T01:40:59.836Z,96316.00
2024-01-24T01:41:59.894Z,96317.00
2024-01-24T01:42:59.949Z,96315.00
2024-01-24T01:43:59.942Z,96308.00
2024-01-24T01:45:00.035Z,96312.00
2024-01-24T01:46:00.162Z,96309.00
2024-01-24T01:47:00.256Z,96306.00
2024-01-24T01:48:00.440Z,96303.00
2024-01-24T01:49:00.528Z,96299.00
2024-01-24T01:50:00.660Z,96299.00
2024-01-24T01:51:00.654Z,96301.00
2024-01-24T01:52:00.798Z,96301.00
2024-01-24T01:53:00.870Z,96297.00
2024-01-24T01:54:01.053Z,96287.00
2024-01-24T01:55:01.085Z,96284.00
2024-01-24T01:56:01.160Z,96281.00
2024-01-24T01:57:01.277Z,96275.00
2024-01-24T01:58:01.409Z,96272.00
2024-01-24T01:59:01.459Z,96263.00
2024-01-24T02:00:01.545Z,96257.00
2024-01-24T02:01:01.738Z,96260.00
2024-01-24T02:02:01.848Z,96259.00
2024-01-24T02:03:01.932Z,96265.00
2024-01-24T02:04:01.979Z,96266.00
2024-01-24T02:05:02.081Z,96263.00
2024-01-24T02:06:02.201Z,96263.00
2024-01-24T02:07:02.390Z,96259.00
2024-01-24T02:08:02.354Z,96264.00
2024-01-24T02:09:02.456Z,96270.00
2024-01-24T02:10:02.537Z,96272.00
2024-01-24T02:11:02.652Z,96267.00
2024-01-24T02:12:02.750Z,96264.00
2024-01-24T02:13:02.936Z,96263.00
2024-01-24T02:14:02.947Z,96262.00
2024-01-24T02:15:03.018Z,96255.00
2024-01-24T02:16:03.186Z,96249.00
2024-01-24T02:17:03.214Z,96248.00
2024-01-24T02:18:03.363Z,96243.00
2024-01-24T02:19:03.474Z,96236.00
2024-01-24T02:20:03.500Z,96234.00
2024-01-24T02:21:03.587Z,96238.00
2024-01-24T02:22:03.672Z,96243.00
2024-01-24T02:23:03.805Z,96243.00
2024-01-24T02:24:03.895Z,96232.00
2024-01-24T02:25:03.973Z,96230.00
2024-01-24T02:26:04.051Z,96228.00
2024-01-24T02:27:04.137Z,96219.00
2024-01-24T02:28:04.257Z,96212.00
2024-01-24T02:29:04.374Z,96210.00
2024-01-24T02:30:04.450Z,96212.00
2024-01-24T02:31:04.541Z,96213.00
2024-01-24T02:32:04.624Z,96207.00
2024-01-24T02:33:04.745Z,96208.00
2024-01-24T02:34:04.867Z,96208.00
2024-01-24T02:35:04.911Z,96205.00
2024-01-24T02:36:04.978Z,96207.00
2024-01-24T02:37:05.090Z,96202.00
2024-01-24T02:38:05.169Z,96204.00
2024-01-24T02:39:05.270Z,96201.00
2024-01-24T02:40:05.347Z,96201.00
2024-01-24T02:41:05.427Z,96199.00
2024-01-24T02:42:05.520Z,96199.00
2024-01-24T02:43:05.597Z,96197.00
2024-01-24T02:44:05.694Z,96200.00
2024-01-24T02:45:05.806Z,96200.00
2024-01-24T02:46:05.882Z,96201.00
2024-01-24T02:47:05.939Z,96201.00
2024-01-24T02:48:06.151Z,96201.00
2024-01-24T02:49:06.248Z,96202.00
2024-01-24T02:50:06.179Z,96201.00
2024-01-24T02:51:06.278Z,96201.00
2024-01-24T02:52:06.381Z,96194.00
2024-01-24T02:53:06.486Z,96190.00
2024-01-24T02:54:06.535Z,96189.00
2024-01-24T02:55:06.620Z,96190.00
2024-01-24T02:56:06.712Z,96190.00
2024-01-24T02:57:06.780Z,96187.00
2024-01-24T02:58:06.907Z,96185.00
2024-01-24T02:59:06.960Z,96185.00
2024-01-24T03:00:07.016Z,96186.00
2024-01-24T03:01:07.158Z,96187.00
2024-01-24T03:02:07.213Z,96181.00
2024-01-24T03:03:07.288Z,96172.00
2024-01-24T03:04:07.459Z,96169.00
2024-01-24T03:05:07.431Z,96166.00
2024-01-24T03:06:07.547Z,96166.00
2024-01-24T03:07:07.680Z,96167.00
2024-01-24T03:08:07.709Z,96161.00
2024-01-24T03:09:07.802Z,96156.00
2024-01-24T03:10:07.841Z,96148.00
2024-01-24T03:11:07.916Z,96150.00
2024-01-24T03:12:07.990Z,96146.00
2024-01-24T03:13:08.096Z,96145.00
2024-01-24T03:14:08.174Z,96152.00
2024-01-24T03:15:08.267Z,96148.00
2024-01-24T03:16:08.306Z,96145.00
2024-01-24T03:17:08.402Z,96143.00
2024-01-24T03:18:08.609Z,96142.00
2024-01-24T03:19:08.694Z,96143.00
2024-01-24T03:20:08.616Z,96138.00
2024-01-24T03:21:08.706Z,96139.00
2024-01-24T03:22:08.808Z,96143.00
2024-01-24T03:23:08.886Z,96139.00
2024-01-24T03:24:08.952Z,96136.00
2024-01-24T03:25:09.035Z,96135.00
2024-01-24T03:26:09.118Z,96136.00
2024-01-24T03:27:09.184Z,96137.00
2024-01-24T03:28:09.279Z,96134.00
2024-01-24T03:29:09.348Z,96136.00
2024-01-24T03:30:09.424Z,96139.00
2024-01-24T03:31:09.534Z,96134.00
2024-01-24T03:32:09.559Z,96132.00
2024-01-24T03:33:09.712Z,96137.00
2024-01-24T03:34:09.856Z,96138.00
2024-01-24T03:35:09.885Z,96129.00
2024-01-24T03:36:09.917Z,96127.00
2024-01-24T03:37:09.966Z,96129.00
2024-01-24T03:38:10.083Z,96127.00
2024-01-24T03:39:10.105Z,96123.00
2024-01-24T03:40:10.188Z,96120.00
2024-01-24T03:41:10.294Z,96122.00
2024-01-24T03:42:10.353Z,96125.00
2024-01-24T03:43:10.426Z,96131.00
2024-01-24T03:44:10.565Z,96134.00
2024-01-24T03:45:10.575Z,96131.00
2024-01-24T03:46:10.647Z,96134.00
2024-01-24T03:47:10.725Z,96133.00
2024-01-24T03:48:10.866Z,96126.00
2024-01-24T03:49:10.956Z,96121.00
2024-01-24T03:50:10.926Z,96123.00
2024-01-24T03:51:11.001Z,96124.00
2024-01-24T03:52:11.088Z,96122.00
2024-01-24T03:53:11.158Z,96120.00
2024-01-24T03:54:11.230Z,96122.00
2024-01-24T03:55:11.291Z,96119.00
2024-01-24T03:56:11.348Z,96118.00
2024-01-24T03:57:11.543Z,96121.00
2024-01-24T03:58:11.506Z,96118.00
2024-01-24T03:59:11.577Z,96119.00
2024-01-24T04:00:11.785Z,96115.00
2024-01-24T04:01:11.866Z,96112.00
2024-01-24T04:02:12.197Z,96110.00
2024-01-24T04:03:11.985Z,96117.00
2024-01-24T04:04:12.095Z,96115.00
2024-01-24T04:05:12.025Z,96119.00
2024-01-24T04:06:12.129Z,96114.00
2024-01-24T04:07:12.196Z,96107.00
2024-01-24T04:08:12.228Z,96102.00
2024-01-24T04:09:12.311Z,96105.00
2024-01-24T04:10:12.362Z,96109.00
2024-01-24T04:11:12.451Z,96116.00
2024-01-24T04:12:12.584Z,96118.00
2024-01-24T04:13:12.593Z,96116.00
2024-01-24T04:14:12.659Z,96117.00
2024-01-24T04:15:12.747Z,96110.00
2024-01-24T04:16:12.879Z,96103.00
2024-01-24T04:17:12.899Z,96101.00
2024-01-24T04:18:13.104Z,96099.00
2024-01-24T04:19:13.145Z,96100.00
2024-01-24T04:20:13.082Z,96093.00
2024-01-24T04:21:13.243Z,96094.00
2024-01-24T04:22:13.253Z,96093.00
2024-01-24T04:23:13.298Z,96088.00
2024-01-24T04:24:13.406Z,96093.00
2024-01-24T04:25:13.466Z,96095.00
2024-01-24T04:26:13.519Z,96086.00
2024-01-24T04:27:13.622Z,96082.00
2024-01-24T04:28:13.685Z,96086.00
2024-01-24T04:29:14.180Z,96080.00
2024-01-24T04:30:21.441Z,96085.00
2024-01-24T04:31:28.614Z,96093.00
2024-01-24T04:32:28.654Z,96102.00
2024-01-24T04:33:28.696Z,96106.00
2024-01-24T04:34:28.718Z,96106.00
2024-01-24T04:35:28.607Z,96107.00
2024-01-24T04:36:28.546Z,96106.00
2024-01-24T04:37:28.546Z,96105.00
2024-01-24T04:38:28.523Z,96102.00
2024-01-24T04:39:28.555Z,96105.00
2024-01-24T04:40:28.492Z,96109.00
2024-01-24T04:41:28.500Z,96107.00
2024-01-24T04:42:28.528Z,96099.00
2024-01-24T04:43:28.493Z,96093.00
2024-01-24T04:44:28.445Z,96099.00
2024-01-24T04:45:28.550Z,96094.00
2024-01-24T04:46:28.421Z,96087.00
2024-01-24T04:47:28.471Z,96091.00
2024-01-24T04:48:28.515Z,96093.00
2024-01-24T04:49:39.972Z,96090.00
2024-01-24T04:50:30.295Z,96086.00
2024-01-24T04:51:28.472Z,96096.00
2024-01-24T04:52:28.413Z,96100.00
2024-01-24T04:53:28.368Z,96102.00
2024-01-24T04:54:28.414Z,96103.00
2024-01-24T04:55:28.391Z,96101.00
2024-01-24T04:56:28.378Z,96092.00
2024-01-24T04:57:28.416Z,96094.00
2024-01-24T04:58:28.390Z,96100.00
2024-01-24T04:59:28.418Z,96098.00
2024-01-24T05:00:28.457Z,96101.00
2024-01-24T05:01:28.410Z,96098.00
2024-01-24T05:02:28.410Z,96094.00
2024-01-24T05:03:28.401Z,96094.00
2024-01-24T05:04:28.405Z,96098.00
2024-01-24T05:05:28.445Z,96091.00
2024-01-24T05:06:28.421Z,96086.00
2024-01-24T05:07:28.375Z,96091.00
2024-01-24T05:08:28.360Z,96097.00
2024-01-24T05:09:28.396Z,96097.00
2024-01-24T05:10:28.418Z,96104.00
2024-01-24T05:11:28.444Z,96104.00
2024-01-24T05:12:28.462Z,96101.00
2024-01-24T05:13:28.441Z,96109.00
2024-01-24T05:14:28.464Z,96113.00
2024-01-24T05:15:28.515Z,96117.00
2024-01-24T05:16:28.465Z,96112.00
2024-01-24T05:17:28.468Z,96108.00
2024-01-24T05:18:28.517Z,96111.00
2024-01-24T05:19:28.490Z,96112.00
2024-01-24T05:20:28.435Z,96103.00
2024-01-24T05:21:28.509Z,96094.00
2024-01-24T05:22:28.400Z,96090.00
2024-01-24T05:23:28.484Z,96092.00
2024-01-24T05:24:28.461Z,96089.00
2024-01-24T05:25:28.422Z,96087.00
2024-01-24T05:26:28.436Z,96088.00
2024-01-24T05:27:28.452Z,96084.00
2024-01-24T05:28:28.454Z,96090.00
2024-01-24T05:29:28.467Z,96084.00
2024-01-24T05:30:35.370Z,96070.00
2024-01-24T05:31:29.487Z,96075.00
2024-01-24T05:32:28.465Z,96078.00
2024-01-24T05:33:28.493Z,96077.00
2024-01-24T05:34:28.554Z,96079.00
2024-01-24T05:35:28.479Z,96074.00
2024-01-24T05:36:28.591Z,96065.00
2024-01-24T05:37:28.455Z,96070.00
2024-01-24T05:38:28.452Z,96077.00
2024-01-24T05:39:28.452Z,96071.00
2024-01-24T05:40:28.461Z,96062.00
2024-01-24T05:41:28.458Z,96061.00
2024-01-24T05:42:28.455Z,96062.00
2024-01-24T05:43:28.440Z,96063.00
2024-01-24T05:44:28.437Z,96060.00
2024-01-24T05:45:28.447Z,96064.00
2024-01-24T05:46:28.431Z,96063.00
2024-01-24T05:47:28.538Z,96067.00
2024-01-24T05:48:28.604Z,96071.00
2024-01-24T05:49:28.445Z,96079.00
2024-01-24T05:50:28.425Z,96081.00
2024-01-24T05:51:28.489Z,96075.00
2024-01-24T05:52:28.418Z,96069.00
2024-01-24T05:53:28.407Z,96073.00
2024-01-24T05:54:28.443Z,96075.00
2024-01-24T05:55:28.405Z,96064.00
2024-01-24T05:56:28.398Z,96062.00
2024-01-24T05:57:28.417Z,96057.00
2024-01-24T05:58:28.415Z,96063.00
2024-01-24T05:59:28.501Z,96059.00
2024-01-24T06:00:28.598Z,96049.00
2024-01-24T06:01:50.911Z,96048.00
2024-01-24T06:02:28.408Z,96048.00
2024-01-24T06:03:28.469Z,96049.00
2024-01-24T06:04:28.530Z,96044.00
2024-01-24T06:05:28.644Z,96045.00
2024-01-24T06:06:28.515Z,96049.00
2024-01-24T06:07:28.432Z,96044.00
2024-01-24T06:08:28.387Z,96046.00
2024-01-24T06:09:28.445Z,96046.00
2024-01-24T06:10:28.374Z,96044.00
2024-01-24T06:11:28.379Z,96043.00
2024-01-24T06:12:28.391Z,96028.00
2024-01-24T06:13:28.392Z,96027.00
2024-01-24T06:14:28.364Z,96031.00
2024-01-24T06:15:28.374Z,96032.00
2024-01-24T06:16:28.371Z,96026.00
2024-01-24T06:17:28.387Z,96023.00
2024-01-24T06:18:28.471Z,96027.00
2024-01-24T06:19:28.414Z,96027.00
2024-01-24T06:20:28.347Z,96020.00
2024-01-24T06:21:28.302Z,96026.00
2024-01-24T06:22:28.409Z,96037.00
2024-01-24T06:23:28.367Z,96029.00
2024-01-24T06:24:28.355Z,96040.00
2024-01-24T06:25:28.301Z,96040.00
2024-01-24T06:26:28.324Z,96041.00
2024-01-24T06:27:28.348Z,96042.00
2024-01-24T06:28:28.318Z,96035.00
2024-01-24T06:30:15.376Z,96035.00
2024-01-24T06:30:31.103Z,96022.00
2024-01-24T06:31:28.334Z,96013.00
2024-01-24T06:32:28.353Z,96019.00
2024-01-24T06:33:28.389Z,96021.00
2024-01-24T06:34:28.895Z,96022.00
2024-01-24T06:35:28.296Z,96027.00
2024-01-24T06:36:28.316Z,96028.00
2024-01-24T06:37:28.314Z,96013.00
2024-01-24T06:38:28.364Z,96013.00
2024-01-24T06:39:28.421Z,96021.00
2024-01-24T06:40:28.322Z,96019.00
2024-01-24T06:41:28.323Z,96022.00
2024-01-24T06:42:28.360Z,96024.00
2024-01-24T06:43:28.417Z,96031.00
2024-01-24T06:44:28.418Z,96032.00
2024-01-24T06:45:28.424Z,96029.00
2024-01-24T06:46:50.941Z,96023.00
2024-01-24T06:47:28.503Z,96021.00
2024-01-24T06:48:29.012Z,96019.00
2024-01-24T06:49:28.617Z,96017.00
2024-01-24T06:50:28.534Z,96017.00
2024-01-24T06:51:28.599Z,96007.00
2024-01-24T06:52:28.561Z,96005.00
2024-01-24T06:53:28.656Z,96017.00
2024-01-24T06:54:28.631Z,96016.00
2024-01-24T06:55:28.621Z,96014.00
2024-01-24T06:56:28.674Z,96006.00
2024-01-24T06:57:28.680Z,96011.00
2024-01-24T06:58:28.680Z,96007.00
2024-01-24T06:59:28.694Z,96000.00
2024-01-24T07:00:28.766Z,96011.00
2024-01-24T07:01:28.824Z,96015.00
2024-01-24T07:02:28.714Z,96009.00
2024-01-24T07:03:28.786Z,96001.00
2024-01-24T07:04:28.790Z,96003.00
2024-01-24T07:05:28.737Z,96001.00
2024-01-24T07:06:28.787Z,96004.00
2024-01-24T07:07:28.759Z,96001.00
2024-01-24T07:08:28.675Z,95994.00
2024-01-24T07:09:28.691Z,95997.00
2024-01-24T07:10:28.805Z,95999.00
2024-01-24T07:11:28.704Z,95997.00
2024-01-24T07:12:28.736Z,95999.00
2024-01-24T07:13:28.700Z,96004.00
2024-01-24T07:14:28.703Z,96001.00
2024-01-24T07:15:28.742Z,95997.00
2024-01-24T07:16:28.713Z,95998.00
2024-01-24T07:17:28.741Z,96009.00
2024-01-24T07:18:28.882Z,96016.00
2024-01-24T07:19:29.512Z,96015.00
2024-01-24T07:20:28.890Z,96009.00
2024-01-24T07:21:28.975Z,96013.00
2024-01-24T07:22:29.055Z,96017.00
2024-01-24T07:23:29.113Z,96002.00
2024-01-24T07:24:29.225Z,96005.00
2024-01-24T07:25:29.215Z,96007.00
2024-01-24T07:26:29.234Z,96003.00
2024-01-24T07:27:29.440Z,95999.00
2024-01-24T07:28:29.396Z,96002.00
2024-01-24T07:29:29.411Z,95990.00
2024-01-24T07:30:29.554Z,95993.00
2024-01-24T07:31:29.527Z,95995.00
2024-01-24T07:32:29.671Z,95996.00
2024-01-24T07:33:29.794Z,95985.00
2024-01-24T07:34:29.792Z,95979.00
2024-01-24T07:35:29.794Z,95982.00
2024-01-24T07:36:29.794Z,95997.00
2024-01-24T07:37:29.774Z,96001.00
2024-01-24T07:38:29.872Z,95997.00
2024-01-24T07:39:30.006Z,96000.00
2024-01-24T07:40:29.821Z,95994.00
2024-01-24T07:41:29.895Z,95990.00
2024-01-24T07:42:29.969Z,95984.00
2024-01-24T07:43:30.360Z,95985.00
2024-01-24T07:44:30.078Z,95988.00
2024-01-24T07:45:30.261Z,95982.00
2024-01-24T07:46:30.190Z,95974.00
2024-01-24T07:47:30.284Z,95973.00
2024-01-24T07:48:30.401Z,95970.00
2024-01-24T07:49:30.506Z,95973.00
2024-01-24T07:50:30.392Z,95972.00
2024-01-24T07:51:30.516Z,95968.00
2024-01-24T07:52:37.060Z,95969.00
2024-01-24T07:53:31.517Z,95956.00
2024-01-24T07:54:30.547Z,95956.00
2024-01-24T07:55:36.966Z,95955.00
2024-01-24T07:56:32.408Z,95976.00
2024-01-24T07:57:30.576Z,95971.00
2024-01-24T07:58:30.960Z,95965.00
2024-01-24T07:59:30.533Z,95970.00
2024-01-24T08:00:30.633Z,95982.00
2024-01-24T08:01:30.559Z,95986.00
2024-01-24T08:02:30.512Z,95977.00
2024-01-24T08:03:30.612Z,95994.00
2024-01-24T08:04:30.545Z,95988.00
2024-01-24T08:05:30.516Z,95968.00
2024-01-24T08:06:30.614Z,95966.00
2024-01-24T08:07:30.437Z,95975.00
2024-01-24T08:08:30.495Z,95975.00
2024-01-24T08:09:30.513Z,95970.00
2024-01-24T08:10:30.448Z,95987.00
2024-01-24T08:11:30.461Z,95986.00
2024-01-24T08:12:30.496Z,95979.00
2024-01-24T08:13:30.427Z,95958.00
2024-01-24T08:14:30.483Z,95979.00
2024-01-24T08:15:30.565Z,95970.00
2024-01-24T08:16:30.586Z,95954.00
2024-01-24T08:17:30.700Z,95943.00
2024-01-24T08:18:30.759Z,95949.00
2024-01-24T08:19:30.802Z,95951.00
2024-01-24T08:20:30.749Z,95941.00
2024-01-24T08:21:30.797Z,95947.00
2024-01-24T08:22:30.831Z,95962.00
2024-01-24T08:23:38.386Z,95942.00
2024-01-24T08:24:31.892Z,95961.00
2024-01-24T08:25:30.852Z,95946.00
2024-01-24T08:26:30.824Z,95931.00
2024-01-24T08:27:30.887Z,95942.00
2024-01-24T08:28:30.877Z,95946.00
2024-01-24T08:29:36.718Z,95950.00
2024-01-24T08:30:31.822Z,95953.00
2024-01-24T08:31:30.775Z,95938.00
2024-01-24T08:32:30.771Z,95936.00
2024-01-24T08:33:30.828Z,95936.00
2024-01-24T08:34:30.925Z,95944.00
2024-01-24T08:35:30.808Z,95950.00
2024-01-24T08:36:30.818Z,95953.00
2024-01-24T08:37:30.802Z,95949.00
2024-01-24T08:38:30.845Z,95932.00
2024-01-24T08:39:30.934Z,95935.00
2024-01-24T08:40:30.860Z,95929.00
2024-01-24T08:41:30.938Z,95922.00
2024-01-24T08:42:30.956Z,95937.00
2024-01-24T08:43:30.951Z,95940.00
2024-01-24T08:44:31.055Z,95923.00
2024-01-24T08:45:31.190Z,95935.00
2024-01-24T08:46:31.168Z,95937.00
2024-01-24T08:47:31.251Z,95944.00
2024-01-24T08:48:31.290Z,95923.00
2024-01-24T08:49:31.314Z,95929.00
2024-01-24T08:50:31.287Z,95936.00
2024-01-24T08:51:31.299Z,95938.00
2024-01-24T08:52:31.254Z,95935.00
2024-01-24T08:53:31.268Z,95912.00
2024-01-24T08:54:31.374Z,95929.00
2024-01-24T08:55:31.272Z,95939.00
2024-01-24T08:56:31.348Z,95923.00
2024-01-24T08:57:31.402Z,95923.00
2024-01-24T08:58:31.292Z,95927.00
2024-01-24T08:59:31.372Z,95942.00
2024-01-24T09:00:31.418Z,95943.00
2024-01-24T09:01:32.731Z,95944.00
2024-01-24T09:02:31.372Z,95949.00
2024-01-24T09:03:31.445Z,95949.00
2024-01-24T09:04:31.524Z,95954.00
2024-01-24T09:05:31.461Z,95948.00
2024-01-24T09:06:31.551Z,95935.00
2024-01-24T09:07:31.517Z,95916.00
2024-01-24T09:08:31.526Z,95924.00
2024-01-24T09:09:31.652Z,95922.00
2024-01-24T09:10:31.711Z,95918.00
2024-01-24T09:11:38.169Z,95929.00
2024-01-24T09:12:32.724Z,95925.00
2024-01-24T09:13:31.712Z,95926.00
2024-01-24T09:14:31.729Z,95919.00
2024-01-24T09:15:31.753Z,95913.00
2024-01-24T09:16:31.785Z,95912.00
2024-01-24T09:17:31.830Z,95909.00
2024-01-24T09:18:31.969Z,95914.00
2024-01-24T09:19:31.994Z,95909.00
2024-01-24T09:20:31.941Z,95923.00
2024-01-24T09:21:32.070Z,95929.00
2024-01-24T09:22:32.092Z,95937.00
2024-01-24T09:23:32.072Z,95926.00
2024-01-24T09:24:32.137Z,95916.00
2024-01-24T09:25:32.198Z,95930.00
2024-01-24T09:26:32.157Z,95928.00
2024-01-24T09:27:32.186Z,95924.00
2024-01-24T09:28:32.267Z,95928.00
2024-01-24T09:29:32.329Z,95930.00
2024-01-24T09:30:32.413Z,95922.00
2024-01-24T09:31:32.432Z,95911.00
2024-01-24T09:32:32.575Z,95910.00
2024-01-24T09:33:34.445Z,95927.00
2024-01-24T09:34:33.063Z,95944.00
2024-01-24T09:35:32.664Z,95945.00
2024-01-24T09:36:32.586Z,95915.00
2024-01-24T09:37:32.574Z,95917.00
2024-01-24T09:38:32.603Z,95908.00
2024-01-24T09:39:32.587Z,95918.00
2024-01-24T09:40:32.650Z,95917.00
2024-01-24T09:41:32.589Z,95886.00
2024-01-24T09:42:32.613Z,95889.00
2024-01-24T09:43:32.604Z,95918.00
2024-01-24T09:44:32.622Z,95939.00
2024-01-24T09:45:32.671Z,95921.00
2024-01-24T09:46:32.613Z,95913.00
2024-01-24T09:47:32.657Z,95913.00
2024-01-24T09:48:32.637Z,95899.00
2024-01-24T09:49:32.804Z,95885.00
2024-01-24T09:50:32.629Z,95877.00
2024-01-24T09:51:32.690Z,95891.00
2024-01-24T09:52:32.632Z,95879.00
2024-01-24T09:53:32.642Z,95876.00
2024-01-24T09:54:32.838Z,95870.00
2024-01-24T09:55:32.762Z,95866.00
2024-01-24T09:56:32.820Z,95877.00
2024-01-24T09:57:32.896Z,95878.00
2024-01-24T09:58:32.878Z,95880.00
2024-01-24T09:59:32.930Z,95885.00
2024-01-24T10:00:32.998Z,95877.00
2024-01-24T10:01:33.165Z,95862.00
2024-01-24T10:02:33.086Z,95865.00
2024-01-24T10:03:34.908Z,95875.00
2024-01-24T10:04:33.268Z,95880.00
2024-01-24T10:05:33.186Z,95876.00
2024-01-24T10:06:33.310Z,95877.00
2024-01-24T10:07:33.318Z,95867.00
2024-01-24T10:08:33.305Z,95841.00
2024-01-24T10:09:33.323Z,95857.00
2024-01-24T10:10:33.374Z,95871.00
2024-01-24T10:11:33.379Z,95840.00
2024-01-24T10:12:33.410Z,95848.00
2024-01-24T10:13:33.440Z,95849.00
2024-01-24T10:14:33.449Z,95834.00
2024-01-24T10:15:33.484Z,95848.00
2024-01-24T10:16:33.549Z,95838.00
2024-01-24T10:17:33.562Z,95858.00
2024-01-24T10:18:33.644Z,95871.00
2024-01-24T10:19:33.689Z,95869.00
2024-01-24T10:20:33.582Z,95822.00
2024-01-24T10:21:33.678Z,95827.00
2024-01-24T10:22:33.649Z,95821.00
2024-01-24T10:23:33.614Z,95842.00
2024-01-24T10:24:33.964Z,95863.00
2024-01-24T10:25:33.806Z,95860.00
2024-01-24T10:26:33.693Z,95848.00
2024-01-24T10:27:34.788Z,95851.00
2024-01-24T10:28:33.700Z,95847.00
2024-01-24T10:29:33.752Z,95843.00
2024-01-24T10:30:33.785Z,95822.00
2024-01-24T10:31:33.722Z,95838.00
2024-01-24T10:32:34.780Z,95858.00
2024-01-24T10:33:33.891Z,95827.00
2024-01-24T10:34:33.841Z,95833.00
2024-01-24T10:35:33.774Z,95836.00
2024-01-24T10:36:34.894Z,95821.00
2024-01-24T10:37:33.779Z,95822.00
2024-01-24T10:38:33.778Z,95818.00
2024-01-24T10:39:33.764Z,95817.00
2024-01-24T10:40:33.779Z,95822.00
2024-01-24T10:41:33.834Z,95807.00
2024-01-24T10:42:33.780Z,95830.00
2024-01-24T10:43:33.750Z,95834.00
2024-01-24T10:44:33.748Z,95813.00
2024-01-24T10:45:33.996Z,95806.00
2024-01-24T10:46:33.849Z,95802.00
2024-01-24T10:47:33.889Z,95812.00
2024-01-24T10:48:34.138Z,95815.00
2024-01-24T10:49:34.089Z,95825.00
2024-01-24T10:50:34.483Z,95809.00
2024-01-24T10:51:34.231Z,95811.00
2024-01-24T10:52:34.233Z,95820.00
2024-01-24T10:53:34.315Z,95818.00
2024-01-24T10:54:34.413Z,95802.00
2024-01-24T10:55:34.332Z,95795.00
2024-01-24T10:56:34.416Z,95804.00
2024-01-24T10:57:34.562Z,95791.00
2024-01-24T10:58:34.536Z,95783.00
2024-01-24T10:59:35.437Z,95765.00
2024-01-24T11:00:34.716Z,95761.00
2024-01-24T11:01:34.808Z,95747.00
2024-01-24T11:02:34.752Z,95775.00
2024-01-24T11:03:34.870Z,95775.00
2024-01-24T11:04:34.807Z,95763.00
2024-01-24T11:05:34.875Z,95761.00
2024-01-24T11:06:34.951Z,95747.00
2024-01-24T11:07:34.737Z,95757.00
2024-01-24T11:08:40.495Z,95778.00
2024-01-24T11:09:35.834Z,95766.00
2024-01-24T11:10:34.820Z,95761.00
2024-01-24T11:11:34.767Z,95760.00
2024-01-24T11:12:34.812Z,95751.00
2024-01-24T11:13:34.765Z,95743.00
2024-01-24T11:14:35.442Z,95751.00
2024-01-24T11:15:35.005Z,95757.00
2024-01-24T11:16:34.747Z,95750.00
2024-01-24T11:17:34.852Z,95750.00
2024-01-24T11:18:34.998Z,95746.00
2024-01-24T11:19:35.051Z,95748.00
2024-01-24T11:20:34.932Z,95743.00
2024-01-24T11:21:36.665Z,95719.00
2024-01-24T11:22:35.072Z,95737.00
2024-01-24T11:23:35.061Z,95752.00
2024-01-24T11:24:35.101Z,95741.00
2024-01-24T11:25:35.118Z,95739.00
2024-01-24T11:26:35.155Z,95738.00
2024-01-24T11:27:35.964Z,95735.00
2024-01-24T11:28:35.254Z,95731.00
2024-01-24T11:29:35.305Z,95731.00
2024-01-24T11:30:35.496Z,95715.00
2024-01-24T11:31:35.363Z,95721.00
2024-01-24T11:32:35.412Z,95717.00
2024-01-24T11:33:35.507Z,95721.00
2024-01-24T11:34:35.498Z,95715.00
2024-01-24T11:35:35.738Z,95718.00
2024-01-24T11:36:35.476Z,95695.00
2024-01-24T11:37:36.006Z,95703.00
2024-01-24T11:38:36.505Z,95685.00
2024-01-24T11:39:35.609Z,95672.00
2024-01-24T11:40:36.015Z,95671.00
2024-01-24T11:41:35.564Z,95676.00
2024-01-24T11:42:35.542Z,95680.00
2024-01-24T11:43:38.263Z,95690.00
2024-01-24T11:44:35.466Z,95690.00
2024-01-24T11:45:35.534Z,95683.00